Time;durP1;ratioP1;P1;durP2;ratioP2;P2;SDS_P1;SDS_P2;PMS_P1;PMS_P2;Temp;Humidity;BMP_temperature;BMP_pressure;BME280_temperature;BME280_humidity;BME280_pressure;Samples;Min_cycle;Max_cycle;Signal;HPM_P1;HPM_P2
2023/09/25 00:02:26;;;;;;;1.17;0.40;;;;;;;;;;5286813;28;20475;-81
2023/09/25 00:04:58;;;;;;;2.67;0.40;;;;;;;;;;5282247;28;20039;-81
2023/09/25 00:07:29;;;;;;;1.10;0.50;;;;;;;;;;5282000;28;20028;-81
2023/09/25 00:10:00;;;;;;;2.38;0.65;;;;;;;;;;5285913;28;20259;-81
2023/09/25 00:12:31;;;;;;;2.05;0.47;;;;;;;;;;5285983;28;20037;-81
2023/09/25 00:15:05;;;;;;;3.67;0.40;;;;;;;;;;5284936;28;20052;-82
2023/09/25 00:17:37;;;;;;;2.17;0.50;;;;;;;;;;5285346;28;20028;-83
2023/09/25 00:20:10;;;;;;;2.65;0.50;;;;;;;;;;5284744;28;20518;-82
2023/09/25 00:22:41;;;;;;;1.17;0.40;;;;;;;;;;5285455;28;20024;-83
2023/09/25 00:25:13;;;;;;;1.90;0.50;;;;;;;;;;5285051;28;20017;-82
2023/09/25 00:27:44;;;;;;;2.00;0.60;;;;;;;;;;5284220;28;20364;-83
2023/09/25 00:30:15;;;;;;;3.58;0.50;;;;;;;;;;5284725;28;20037;-82
2023/09/25 00:32:46;;;;;;;1.17;0.40;;;;;;;;;;5284423;28;20475;-82
2023/09/25 00:35:19;;;;;;;1.65;0.50;;;;;;;;;;5284278;28;20384;-83
2023/09/25 00:37:51;;;;;;;1.55;0.32;;;;;;;;;;5284693;28;20115;-83
2023/09/25 00:40:24;;;;;;;2.30;0.57;;;;;;;;;;5284993;28;20095;-83
2023/09/25 00:42:56;;;;;;;2.60;0.40;;;;;;;;;;5284100;28;20399;-83
2023/09/25 00:45:28;;;;;;;2.25;0.60;;;;;;;;;;5284451;28;20028;-82
2023/09/25 00:47:59;;;;;;;1.45;0.45;;;;;;;;;;5284402;28;20025;-82
2023/09/25 00:50:32;;;;;;;1.42;0.60;;;;;;;;;;5283922;28;20043;-82
2023/09/25 00:53:06;;;;;;;1.65;0.52;;;;;;;;;;5284443;28;20522;-82
2023/09/25 00:55:37;;;;;;;1.42;0.38;;;;;;;;;;5283649;28;20510;-81
2023/09/25 00:58:09;;;;;;;4.38;0.50;;;;;;;;;;5284063;28;20048;-81
2023/09/25 01:00:42;;;;;;;1.33;0.40;;;;;;;;;;5284240;28;20029;-82
2023/09/25 01:03:13;;;;;;;1.05;0.38;;;;;;;;;;5283458;28;20027;-82
2023/09/25 01:05:45;;;;;;;1.50;0.47;;;;;;;;;;5283993;28;20013;-82
2023/09/25 01:08:16;;;;;;;1.88;0.50;;;;;;;;;;5284169;28;20031;-82
2023/09/25 01:10:49;;;;;;;1.98;0.40;;;;;;;;;;5283187;28;20383;-82
2023/09/25 01:13:21;;;;;;;2.88;0.50;;;;;;;;;;5284339;28;20479;-82
2023/09/25 01:15:52;;;;;;;2.42;0.40;;;;;;;;;;5283747;28;20021;-82
2023/09/25 01:18:23;;;;;;;1.20;0.50;;;;;;;;;;5283240;28;20399;-81
2023/09/25 01:20:54;;;;;;;2.35;0.52;;;;;;;;;;5282819;28;20008;-82
2023/09/25 01:23:26;;;;;;;1.85;0.50;;;;;;;;;;5283298;28;20467;-82
2023/09/25 01:25:57;;;;;;;1.98;0.60;;;;;;;;;;5283534;28;20032;-82
2023/09/25 01:28:29;;;;;;;2.78;0.50;;;;;;;;;;5283632;28;20013;-82
2023/09/25 01:31:00;;;;;;;1.70;0.50;;;;;;;;;;5282703;28;20056;-82
2023/09/25 01:33:32;;;;;;;2.72;0.50;;;;;;;;;;5283494;28;20032;-82
2023/09/25 01:36:03;;;;;;;2.53;0.40;;;;;;;;;;5283693;28;20074;-82
2023/09/25 01:38:35;;;;;;;1.55;0.50;;;;;;;;;;5282682;28;20021;-82
2023/09/25 01:41:06;;;;;;;1.45;0.65;;;;;;;;;;5283345;28;20040;-82
2023/09/25 01:43:37;;;;;;;3.15;0.60;;;;;;;;;;5283361;28;20039;-82
2023/09/25 01:46:08;;;;;;;3.90;0.70;;;;;;;;;;5282605;28;20008;-82
2023/09/25 01:48:40;;;;;;;2.15;0.70;;;;;;;;;;5283319;28;20032;-82
2023/09/25 01:51:11;;;;;;;1.93;0.50;;;;;;;;;;5283318;28;20371;-82
2023/09/25 01:53:45;;;;;;;2.92;0.60;;;;;;;;;;5282396;28;20748;-82
2023/09/25 01:56:17;;;;;;;2.03;0.50;;;;;;;;;;5283293;28;20024;-82
2023/09/25 01:58:48;;;;;;;1.58;0.50;;;;;;;;;;5282121;28;20024;-82
2023/09/25 02:01:19;;;;;;;1.27;0.60;;;;;;;;;;5283053;28;20023;-82
2023/09/25 02:03:51;;;;;;;1.75;0.40;;;;;;;;;;5282798;28;20016;-82
2023/09/25 02:06:23;;;;;;;2.13;0.57;;;;;;;;;;5282415;28;20013;-81
2023/09/25 02:08:55;;;;;;;2.35;0.63;;;;;;;;;;5282542;28;20119;-82
2023/09/25 02:11:26;;;;;;;2.15;0.50;;;;;;;;;;5282740;28;20436;-82
2023/09/25 02:13:57;;;;;;;2.08;0.70;;;;;;;;;;5281947;28;20032;-81
2023/09/25 02:16:29;;;;;;;2.55;0.60;;;;;;;;;;5282939;28;20491;-82
2023/09/25 02:19:00;;;;;;;2.15;0.60;;;;;;;;;;5282530;28;20062;-82
2023/09/25 02:21:31;;;;;;;2.53;0.50;;;;;;;;;;5281858;28;20013;-82
2023/09/25 02:24:03;;;;;;;1.35;0.50;;;;;;;;;;5282389;28;20052;-82
2023/09/25 02:26:34;;;;;;;2.45;0.60;;;;;;;;;;5282037;28;20025;-82
2023/09/25 02:29:05;;;;;;;1.48;0.50;;;;;;;;;;5282030;28;20476;-81
2023/09/25 02:31:36;;;;;;;1.90;0.60;;;;;;;;;;5282389;28;20025;-82
2023/09/25 02:34:14;;;;;;;1.55;0.50;;;;;;;;;;5281421;28;20029;-82
2023/09/25 02:36:45;;;;;;;1.30;0.50;;;;;;;;;;5282197;28;20404;-81
2023/09/25 02:39:16;;;;;;;2.05;0.70;;;;;;;;;;5282496;28;20058;-81
2023/09/25 02:41:47;;;;;;;1.85;0.70;;;;;;;;;;5281080;28;20009;-82
2023/09/25 02:44:19;;;;;;;1.48;0.50;;;;;;;;;;5282487;28;20012;-82
2023/09/25 02:46:50;;;;;;;4.10;0.60;;;;;;;;;;5281730;28;20024;-82
2023/09/25 02:49:21;;;;;;;3.25;0.75;;;;;;;;;;5281553;28;20479;-82
2023/09/25 02:51:52;;;;;;;3.05;0.63;;;;;;;;;;5281801;28;20460;-82
2023/09/25 02:54:23;;;;;;;1.33;0.50;;;;;;;;;;5282049;28;20020;-82
2023/09/25 02:56:55;;;;;;;1.75;0.50;;;;;;;;;;5281169;28;20427;-82
2023/09/25 02:59:26;;;;;;;1.90;0.60;;;;;;;;;;5282158;28;20035;-82
2023/09/25 03:01:57;;;;;;;3.97;0.60;;;;;;;;;;5281477;28;20024;-81
2023/09/25 03:04:28;;;;;;;1.73;0.63;;;;;;;;;;5282095;28;20028;-82
2023/09/25 03:06:59;;;;;;;4.00;0.60;;;;;;;;;;5281846;28;20020;-81
2023/09/25 03:09:31;;;;;;;3.55;0.70;;;;;;;;;;5281284;28;20032;-82
2023/09/25 03:12:02;;;;;;;2.28;0.60;;;;;;;;;;5281692;28;20090;-82
2023/09/25 03:14:33;;;;;;;1.45;0.50;;;;;;;;;;5282030;28;20103;-82
2023/09/25 03:17:04;;;;;;;2.40;0.52;;;;;;;;;;5281054;28;20027;-82
2023/09/25 03:19:35;;;;;;;1.52;0.60;;;;;;;;;;5281737;28;20020;-82
2023/09/25 03:22:07;;;;;;;2.47;0.93;;;;;;;;;;5282034;28;20044;-81
2023/09/25 03:24:38;;;;;;;1.73;0.60;;;;;;;;;;5281254;28;20071;-82
2023/09/25 03:27:09;;;;;;;1.75;0.50;;;;;;;;;;5281747;28;20025;-82
2023/09/25 03:29:40;;;;;;;1.70;0.60;;;;;;;;;;5281784;28;20048;-82
2023/09/25 03:32:11;;;;;;;2.92;0.52;;;;;;;;;;5280992;28;20136;-82
2023/09/25 03:34:43;;;;;;;1.63;0.70;;;;;;;;;;5281524;28;20020;-82
2023/09/25 03:37:14;;;;;;;1.75;0.70;;;;;;;;;;5280753;28;20550;-82
2023/09/25 03:39:45;;;;;;;1.42;0.50;;;;;;;;;;5281221;28;20525;-82
2023/09/25 03:42:17;;;;;;;2.08;0.60;;;;;;;;;;5281811;28;20016;-81
2023/09/25 03:44:50;;;;;;;2.80;0.60;;;;;;;;;;5284087;28;20048;-81
2023/09/25 03:47:21;;;;;;;2.65;0.73;;;;;;;;;;5286187;28;20086;-81
2023/09/25 03:49:52;;;;;;;1.23;0.50;;;;;;;;;;5285181;28;20013;-81
2023/09/25 03:52:23;;;;;;;2.67;0.60;;;;;;;;;;5284758;28;20459;-81
2023/09/25 03:54:54;;;;;;;2.30;0.55;;;;;;;;;;5285414;28;20108;-82
2023/09/25 03:57:26;;;;;;;2.70;0.70;;;;;;;;;;5285267;28;20008;-81
2023/09/25 03:59:57;;;;;;;2.75;0.70;;;;;;;;;;5284732;28;20047;-82
2023/09/25 04:02:28;;;;;;;14.95;1.98;;;;;;;;;;5285483;28;20028;-82
2023/09/25 04:04:59;;;;;;;2.37;0.53;;;;;;;;;;5285186;28;20048;-81
2023/09/25 04:07:30;;;;;;;1.40;0.52;;;;;;;;;;5284382;28;20323;-82
2023/09/25 04:10:02;;;;;;;2.97;0.60;;;;;;;;;;5284922;28;20096;-81
2023/09/25 04:12:34;;;;;;;3.50;0.68;;;;;;;;;;5284149;28;20089;-81
2023/09/25 04:15:10;;;;;;;3.40;0.60;;;;;;;;;;5285153;28;20387;-81
2023/09/25 04:17:42;;;;;;;3.00;0.60;;;;;;;;;;5284959;28;20467;-81
2023/09/25 04:20:17;;;;;;;1.65;0.60;;;;;;;;;;5284343;28;20023;-81
2023/09/25 04:22:48;;;;;;;2.22;0.60;;;;;;;;;;5284557;28;20077;-81
2023/09/25 04:25:20;;;;;;;2.75;0.52;;;;;;;;;;5285241;28;20461;-82
2023/09/25 04:27:52;;;;;;;2.47;0.65;;;;;;;;;;5283865;28;20041;-81
2023/09/25 04:30:24;;;;;;;1.80;0.63;;;;;;;;;;5284689;28;20127;-81
2023/09/25 04:32:55;;;;;;;3.15;1.00;;;;;;;;;;5284846;28;20115;-81
2023/09/25 04:35:28;;;;;;;4.82;0.70;;;;;;;;;;5283991;28;20021;-81
2023/09/25 04:37:59;;;;;;;2.15;0.60;;;;;;;;;;5284827;28;20032;-82
2023/09/25 04:40:31;;;;;;;2.42;0.60;;;;;;;;;;5283914;28;20032;-81
2023/09/25 04:43:03;;;;;;;3.22;0.75;;;;;;;;;;5284523;28;20024;-81
2023/09/25 04:45:34;;;;;;;2.42;0.70;;;;;;;;;;5284460;28;20012;-81
2023/09/25 04:48:05;;;;;;;3.40;0.60;;;;;;;;;;5283876;28;20430;-82
2023/09/25 04:50:37;;;;;;;6.43;0.95;;;;;;;;;;5284511;28;20047;-82
2023/09/25 04:53:08;;;;;;;2.50;0.63;;;;;;;;;;5284362;28;20097;-82
2023/09/25 04:55:40;;;;;;;2.90;0.95;;;;;;;;;;5282545;28;20017;-80
2023/09/25 04:58:12;;;;;;;2.35;1.00;;;;;;;;;;5284454;28;20017;-81
2023/09/25 05:00:44;;;;;;;1.75;0.80;;;;;;;;;;5284415;28;20027;-80
2023/09/25 05:03:15;;;;;;;2.42;0.80;;;;;;;;;;5283579;28;20017;-81
2023/09/25 05:05:46;;;;;;;1.92;0.60;;;;;;;;;;5283479;28;20024;-81
2023/09/25 05:08:18;;;;;;;1.75;0.60;;;;;;;;;;5284068;28;20016;-81
2023/09/25 05:10:49;;;;;;;6.57;0.98;;;;;;;;;;5282910;28;20009;-81
2023/09/25 05:13:20;;;;;;;2.28;0.70;;;;;;;;;;5284307;28;20107;-82
2023/09/25 05:15:51;;;;;;;2.78;0.70;;;;;;;;;;5283013;28;20379;-82
2023/09/25 05:18:23;;;;;;;2.50;0.60;;;;;;;;;;5283885;28;20020;-80
2023/09/25 05:20:54;;;;;;;36.28;3.70;;;;;;;;;;5283585;28;20479;-81
2023/09/25 05:23:25;;;;;;;5.63;1.33;;;;;;;;;;5283105;28;20475;-80
2023/09/25 05:25:58;;;;;;;3.85;1.10;;;;;;;;;;5283193;28;20028;-81
2023/09/25 05:28:30;;;;;;;2.55;0.60;;;;;;;;;;5283369;28;20104;-81
2023/09/25 05:31:02;;;;;;;4.03;0.80;;;;;;;;;;5282675;28;20127;-81
2023/09/25 05:33:33;;;;;;;2.63;0.65;;;;;;;;;;5283533;28;20024;-81
2023/09/25 05:36:06;;;;;;;3.22;0.70;;;;;;;;;;5283392;28;20031;-82
2023/09/25 05:38:37;;;;;;;5.40;0.80;;;;;;;;;;5282521;28;20122;-82
2023/09/25 05:41:08;;;;;;;2.20;0.82;;;;;;;;;;5283143;28;20021;-82
2023/09/25 05:43:39;;;;;;;3.55;0.73;;;;;;;;;;5282475;28;20028;-81
2023/09/25 05:46:11;;;;;;;8.98;0.80;;;;;;;;;;5283569;28;20016;-81
2023/09/25 05:48:42;;;;;;;6.30;0.75;;;;;;;;;;5283527;28;20103;-81
2023/09/25 05:51:13;;;;;;;2.90;0.90;;;;;;;;;;5282385;28;20016;-81
2023/09/25 05:53:45;;;;;;;5.55;0.80;;;;;;;;;;5282811;28;20033;-81
2023/09/25 05:56:16;;;;;;;4.05;0.80;;;;;;;;;;5283591;28;20490;-81
2023/09/25 05:58:47;;;;;;;3.13;1.00;;;;;;;;;;5281941;28;20029;-81
2023/09/25 06:01:18;;;;;;;221.88;24.75;;;;;;;;;;5283466;28;20057;-80
2023/09/25 06:03:50;;;;;;;45.35;9.52;;;;;;;;;;5282687;28;20027;-81
2023/09/25 06:06:22;;;;;;;9.98;2.42;;;;;;;;;;5281907;28;20017;-81
2023/09/25 06:08:53;;;;;;;88.63;10.75;;;;;;;;;;5282241;28;20024;-82
2023/09/25 06:11:25;;;;;;;77.82;13.23;;;;;;;;;;5282724;28;20460;-80
2023/09/25 06:13:56;;;;;;;9.27;2.63;;;;;;;;;;5281885;28;20044;-81
2023/09/25 06:16:27;;;;;;;3.15;0.70;;;;;;;;;;5282505;28;20020;-82
2023/09/25 06:18:58;;;;;;;4.50;1.05;;;;;;;;;;5282458;28;20139;-82
2023/09/25 06:21:30;;;;;;;7.75;2.92;;;;;;;;;;5282634;28;20331;-81
2023/09/25 06:24:03;;;;;;;5.80;1.55;;;;;;;;;;5282586;28;20074;-81
2023/09/25 06:26:41;;;;;;;6.10;2.10;;;;;;;;;;5281650;28;20016;-81
2023/09/25 06:29:12;;;;;;;8.45;1.48;;;;;;;;;;5282350;28;20398;-83
2023/09/25 06:31:44;;;;;;;3.00;0.93;;;;;;;;;;5282610;28;20021;-83
2023/09/25 06:34:15;;;;;;;5.00;0.80;;;;;;;;;;5281603;28;20035;-81
2023/09/25 06:36:46;;;;;;;3.20;0.60;;;;;;;;;;5281965;28;20536;-81
2023/09/25 06:39:17;;;;;;;3.42;0.63;;;;;;;;;;5282383;28;20028;-82
2023/09/25 06:41:49;;;;;;;5.63;0.70;;;;;;;;;;5281345;28;20017;-83
2023/09/25 06:44:20;;;;;;;2.78;0.70;;;;;;;;;;5282608;28;20107;-83
2023/09/25 06:46:51;;;;;;;2.20;0.65;;;;;;;;;;5281232;28;20021;-84
2023/09/25 06:49:23;;;;;;;3.72;0.80;;;;;;;;;;5282205;28;20031;-82
2023/09/25 06:51:54;;;;;;;151.82;14.45;;;;;;;;;;5281628;28;20464;-81
2023/09/25 06:54:25;;;;;;;40.08;5.88;;;;;;;;;;5281385;28;20021;-84
2023/09/25 06:56:57;;;;;;;255.50;29.63;;;;;;;;;;5281974;28;20016;-84
2023/09/25 06:59:29;;;;;;;12.32;3.70;;;;;;;;;;5281900;28;20020;-84
2023/09/25 07:02:01;;;;;;;3.85;0.70;;;;;;;;;;5281132;28;20012;-84
2023/09/25 07:04:33;;;;;;;2.78;0.60;;;;;;;;;;5281844;28;20020;-84
2023/09/25 07:07:05;;;;;;;2.15;0.60;;;;;;;;;;5282022;28;20374;-82
2023/09/25 07:09:36;;;;;;;2.40;0.50;;;;;;;;;;5281316;28;20039;-82
2023/09/25 07:12:08;;;;;;;1.85;0.60;;;;;;;;;;5282022;28;20017;-82
2023/09/25 07:14:39;;;;;;;4.50;0.50;;;;;;;;;;5281884;28;20021;-81
2023/09/25 07:17:11;;;;;;;2.65;0.70;;;;;;;;;;5280618;28;20036;-83
2023/09/25 07:19:42;;;;;;;1.73;0.60;;;;;;;;;;5281476;28;20336;-83
2023/09/25 07:22:13;;;;;;;1.30;0.50;;;;;;;;;;5281392;28;20127;-84
2023/09/25 07:24:44;;;;;;;2.57;0.50;;;;;;;;;;5281551;28;20112;-84
2023/09/25 07:27:16;;;;;;;3.17;0.60;;;;;;;;;;5282006;28;20259;-84
2023/09/25 07:29:48;;;;;;;2.50;0.50;;;;;;;;;;5280676;28;20402;-84
2023/09/25 07:32:19;;;;;;;1.30;0.50;;;;;;;;;;5281957;28;20416;-84
2023/09/25 07:34:52;;;;;;;2.58;0.50;;;;;;;;;;5282440;28;20162;-84
2023/09/25 07:37:23;;;;;;;4.63;0.50;;;;;;;;;;5280904;28;20016;-84
2023/09/25 07:39:54;;;;;;;1.52;0.55;;;;;;;;;;5281519;28;20028;-83
2023/09/25 07:42:25;;;;;;;3.00;0.50;;;;;;;;;;5281436;28;20017;-84
2023/09/25 07:44:56;;;;;;;1.63;0.60;;;;;;;;;;5280690;28;20036;-85
2023/09/25 07:47:29;;;;;;;2.65;0.60;;;;;;;;;;5281793;28;20662;-82
2023/09/25 07:50:00;;;;;;;2.25;0.60;;;;;;;;;;5281281;28;20031;-82
2023/09/25 07:52:32;;;;;;;1.55;0.50;;;;;;;;;;5281228;28;20359;-83
2023/09/25 07:55:10;;;;;;;2.10;0.60;;;;;;;;;;5281096;28;20035;-83
2023/09/25 07:57:44;;;;;;;1.70;0.52;;;;;;;;;;5280537;28;20095;-83
2023/09/25 08:00:23;;;;;;;1.15;0.40;;;;;;;;;;5281601;28;20027;-82
2023/09/25 08:02:54;;;;;;;1.27;0.45;;;;;;;;;;5280728;28;20055;-82
2023/09/25 08:05:28;;;;;;;1.48;0.45;;;;;;;;;;5280690;28;20363;-84
2023/09/25 08:07:59;;;;;;;8.65;1.17;;;;;;;;;;5281119;28;20047;-83
2023/09/25 08:10:31;;;;;;;8.13;0.80;;;;;;;;;;5281321;28;20487;-82
2023/09/25 08:13:02;;;;;;;10.45;1.83;;;;;;;;;;5280162;28;20035;-81
2023/09/25 08:15:35;;;;;;;6.28;0.63;;;;;;;;;;5281064;28;20016;-83
2023/09/25 08:18:06;;;;;;;1.50;0.60;;;;;;;;;;5281231;28;20103;-84
2023/09/25 08:20:39;;;;;;;3.67;1.10;;;;;;;;;;5280343;28;20091;-84
2023/09/25 08:23:10;;;;;;;1.75;0.70;;;;;;;;;;5281100;28;20036;-85
2023/09/25 08:25:41;;;;;;;16.95;2.47;;;;;;;;;;5280061;28;20024;-83
2023/09/25 08:28:14;;;;;;;6.37;1.10;;;;;;;;;;5280761;28;20024;-83
2023/09/25 08:30:45;;;;;;;6.35;1.08;;;;;;;;;;5283422;28;20429;-83
2023/09/25 08:33:16;;;;;;;4.22;0.70;;;;;;;;;;5283885;28;20115;-83
2023/09/25 08:35:47;;;;;;;6.13;0.80;;;;;;;;;;5284333;28;20364;-83
2023/09/25 08:38:18;;;;;;;2.70;0.70;;;;;;;;;;5284331;28;20286;-83
2023/09/25 08:40:49;;;;;;;5.13;0.70;;;;;;;;;;5283662;28;20082;-83
2023/09/25 08:43:21;;;;;;;2.90;0.60;;;;;;;;;;5284638;28;20281;-82
2023/09/25 08:45:53;;;;;;;2.22;0.60;;;;;;;;;;5283970;28;20463;-83
2023/09/25 08:48:24;;;;;;;2.88;0.52;;;;;;;;;;5283416;28;20061;-83
2023/09/25 08:50:55;;;;;;;1.73;0.50;;;;;;;;;;5284000;28;20105;-85
2023/09/25 08:53:29;;;;;;;2.30;0.70;;;;;;;;;;5283512;28;20032;-83
2023/09/25 08:56:00;;;;;;;1.77;0.50;;;;;;;;;;5284368;28;20020;-83
2023/09/25 08:58:32;;;;;;;2.73;0.60;;;;;;;;;;5283987;28;20016;-83
2023/09/25 09:01:03;;;;;;;1.98;0.65;;;;;;;;;;5283111;28;20694;-77
2023/09/25 09:03:34;;;;;;;3.72;0.63;;;;;;;;;;5283766;28;20020;-79
2023/09/25 09:06:06;;;;;;;2.63;0.60;;;;;;;;;;5273533;28;20421;-84
2023/09/25 09:08:37;;;;;;;1.73;0.60;;;;;;;;;;5261671;28;20025;-85
2023/09/25 09:11:11;;;;;;;1.98;0.50;;;;;;;;;;5261025;28;20263;-85
2023/09/25 09:13:43;;;;;;;2.00;0.50;;;;;;;;;;5260604;28;20059;-84
2023/09/25 09:16:15;;;;;;;2.17;0.60;;;;;;;;;;5260275;28;20017;-85
2023/09/25 09:18:46;;;;;;;2.80;0.50;;;;;;;;;;5260645;28;20101;-80
2023/09/25 09:21:21;;;;;;;14.55;2.10;;;;;;;;;;5261752;28;20025;-84
2023/09/25 09:23:57;;;;;;;3.33;0.80;;;;;;;;;;5261692;28;20040;-84
2023/09/25 09:26:30;;;;;;;2.10;0.70;;;;;;;;;;5261684;28;20017;-83
2023/09/25 09:29:01;;;;;;;2.47;0.60;;;;;;;;;;5261664;28;20031;-83
2023/09/25 09:31:32;;;;;;;2.22;0.80;;;;;;;;;;5262898;28;20456;-83
2023/09/25 09:34:04;;;;;;;2.20;0.60;;;;;;;;;;5262602;28;20052;-84
2023/09/25 09:36:35;;;;;;;1.42;0.50;;;;;;;;;;5261878;28;20442;-83
2023/09/25 09:39:10;;;;;;;2.78;0.60;;;;;;;;;;5262852;28;20095;-84
2023/09/25 09:41:42;;;;;;;2.08;0.73;;;;;;;;;;5262772;28;20059;-84
2023/09/25 09:44:13;;;;;;;2.28;0.55;;;;;;;;;;5259899;28;20129;-84
2023/09/25 09:46:46;;;;;;;2.13;0.40;;;;;;;;;;5260529;28;20377;-84
2023/09/25 09:49:23;;;;;;;1.02;0.40;;;;;;;;;;5260767;28;20025;-83
2023/09/25 09:51:55;;;;;;;2.20;0.57;;;;;;;;;;5259667;28;20087;-84
2023/09/25 09:54:29;;;;;;;2.70;0.40;;;;;;;;;;5261015;28;20598;-84
2023/09/25 09:57:01;;;;;;;4.15;0.60;;;;;;;;;;5261499;28;20167;-85
2023/09/25 09:59:32;;;;;;;1.83;0.50;;;;;;;;;;5262124;28;20100;-85
2023/09/25 10:02:04;;;;;;;3.33;0.50;;;;;;;;;;5262056;28;20036;-85
2023/09/25 10:04:36;;;;;;;2.05;0.40;;;;;;;;;;5261872;28;20078;-84
2023/09/25 10:07:08;;;;;;;1.73;0.40;;;;;;;;;;5262185;28;20031;-85
2023/09/25 10:09:54;;;;;;;3.70;0.68;;;;;;;;;;5262242;28;20456;-84
2023/09/25 10:12:43;;;;;;;2.70;0.70;;;;;;;;;;5261625;28;20104;-84
2023/09/25 10:15:20;;;;;;;1.05;0.40;;;;;;;;;;5261606;28;20025;-84
2023/09/25 10:17:52;;;;;;;2.22;0.40;;;;;;;;;;5260843;28;20013;-85
2023/09/25 10:20:33;;;;;;;1.33;0.50;;;;;;;;;;5261444;28;20024;-85
2023/09/25 10:23:04;;;;;;;2.13;0.40;;;;;;;;;;5261857;28;20431;-84
2023/09/25 10:25:53;;;;;;;2.80;0.50;;;;;;;;;;5260897;28;20024;-84
2023/09/25 10:28:28;;;;;;;2.35;0.40;;;;;;;;;;5261967;28;20090;-84
2023/09/25 10:31:00;;;;;;;2.72;0.50;;;;;;;;;;5261584;28;20427;-84
2023/09/25 10:33:32;;;;;;;1.02;0.38;;;;;;;;;;5260999;28;20055;-84
2023/09/25 10:36:04;;;;;;;2.63;0.30;;;;;;;;;;5261850;28;20372;-84
2023/09/25 10:38:36;;;;;;;1.33;0.40;;;;;;;;;;5261774;28;20321;-83
2023/09/25 10:41:07;;;;;;;2.22;0.50;;;;;;;;;;5260647;28;20032;-81
2023/09/25 10:43:39;;;;;;;1.47;0.40;;;;;;;;;;5261569;28;20066;-83
2023/09/25 10:46:10;;;;;;;2.37;0.40;;;;;;;;;;5255724;28;20303;-83
2023/09/25 10:48:41;;;;;;;1.63;0.40;;;;;;;;;;5280388;28;20282;-82
2023/09/25 10:51:14;;;;;;;2.23;0.50;;;;;;;;;;5278381;28;20017;-82
2023/09/25 10:53:46;;;;;;;1.17;0.45;;;;;;;;;;5279382;28;20621;-82
2023/09/25 10:56:17;;;;;;;1.85;0.30;;;;;;;;;;5282107;28;20088;-82
2023/09/25 10:58:52;;;;;;;3.60;0.40;;;;;;;;;;5281050;28;20050;-82
2023/09/25 11:01:23;;;;;;;0.95;0.30;;;;;;;;;;5280892;28;20274;-83
2023/09/25 11:03:57;;;;;;;2.50;0.40;;;;;;;;;;5281749;28;20538;-82
2023/09/25 11:06:28;;;;;;;1.13;0.40;;;;;;;;;;5274343;28;20353;-82
2023/09/25 11:09:11;;;;;;;1.42;0.40;;;;;;;;;;5260238;28;20024;-82
2023/09/25 11:11:45;;;;;;;2.30;0.50;;;;;;;;;;5261053;28;20025;-82
2023/09/25 11:14:16;;;;;;;1.48;0.47;;;;;;;;;;5258967;28;20035;-82
2023/09/25 11:16:48;;;;;;;2.15;0.30;;;;;;;;;;5258855;28;20375;-82
2023/09/25 11:19:21;;;;;;;176.43;16.47;;;;;;;;;;5261509;28;20021;-81
2023/09/25 11:21:55;;;;;;;60.45;7.72;;;;;;;;;;5259956;28;20283;-82
2023/09/25 11:24:26;;;;;;;181.88;18.58;;;;;;;;;;5261050;28;20479;-81
2023/09/25 11:26:58;;;;;;;15.18;2.17;;;;;;;;;;5260979;28;20076;-81
2023/09/25 11:29:34;;;;;;;2.33;0.60;;;;;;;;;;5259956;28;20045;-81
2023/09/25 11:32:05;;;;;;;1.35;0.40;;;;;;;;;;5260587;28;20282;-81
2023/09/25 11:34:38;;;;;;;1.45;0.50;;;;;;;;;;5260787;28;20499;-81
2023/09/25 11:37:20;;;;;;;2.25;0.40;;;;;;;;;;5259604;28;20416;-81
2023/09/25 11:39:52;;;;;;;3.90;0.50;;;;;;;;;;5260356;28;20021;-82
2023/09/25 11:42:24;;;;;;;2.72;0.50;;;;;;;;;;5259583;28;20013;-76
2023/09/25 11:44:55;;;;;;;1.20;0.40;;;;;;;;;;5260903;28;20499;-83
2023/09/25 11:47:26;;;;;;;1.48;0.50;;;;;;;;;;5260633;28;20048;-83
2023/09/25 11:49:57;;;;;;;0.70;0.30;;;;;;;;;;5259872;28;20115;-83
2023/09/25 11:52:29;;;;;;;4.30;0.53;;;;;;;;;;5260499;28;20642;-83
2023/09/25 11:55:00;;;;;;;3.85;0.50;;;;;;;;;;5260749;28;20294;-83
2023/09/25 11:57:31;;;;;;;1.83;0.30;;;;;;;;;;5259880;28;20112;-83
2023/09/25 12:00:05;;;;;;;1.30;0.33;;;;;;;;;;5260458;28;20275;-83
2023/09/25 12:02:36;;;;;;;1.73;0.40;;;;;;;;;;5260798;28;20279;-82
2023/09/25 12:05:08;;;;;;;1.63;0.40;;;;;;;;;;5261906;28;20009;-82
2023/09/25 12:07:40;;;;;;;2.03;0.40;;;;;;;;;;5264649;28;20503;-84
2023/09/25 12:10:17;;;;;;;2.17;0.40;;;;;;;;;;5264525;28;20057;-84
2023/09/25 12:12:49;;;;;;;1.08;0.30;;;;;;;;;;5263631;28;20029;-83
2023/09/25 12:15:21;;;;;;;1.23;0.57;;;;;;;;;;5264633;28;20107;-84
2023/09/25 12:17:53;;;;;;;1.83;0.40;;;;;;;;;;5263764;28;20260;-84
2023/09/25 12:20:25;;;;;;;1.50;0.43;;;;;;;;;;5265878;28;20021;-83
2023/09/25 12:22:57;;;;;;;4.43;0.43;;;;;;;;;;5267708;28;20024;-83
2023/09/25 12:25:29;;;;;;;1.58;0.40;;;;;;;;;;5267693;28;20024;-83
2023/09/25 12:28:00;;;;;;;1.63;0.43;;;;;;;;;;5267023;28;20074;-81
2023/09/25 12:30:32;;;;;;;1.48;0.40;;;;;;;;;;5263909;28;20040;-81
2023/09/25 12:33:04;;;;;;;2.45;0.40;;;;;;;;;;5269328;28;20033;-82
2023/09/25 12:35:40;;;;;;;3.13;0.50;;;;;;;;;;5269969;28;20020;-83
2023/09/25 12:38:11;;;;;;;2.63;0.40;;;;;;;;;;5267954;28;20041;-83
2023/09/25 12:40:43;;;;;;;1.83;0.50;;;;;;;;;;5268009;28;20066;-82
2023/09/25 12:43:14;;;;;;;1.35;0.40;;;;;;;;;;5265237;28;20274;-82
2023/09/25 12:45:45;;;;;;;0.83;0.30;;;;;;;;;;5264537;28;20100;-83
2023/09/25 12:48:17;;;;;;;2.33;0.63;;;;;;;;;;5265004;28;20259;-83
2023/09/25 12:50:48;;;;;;;3.38;0.40;;;;;;;;;;5264389;28;20100;-83
2023/09/25 12:53:19;;;;;;;1.10;0.40;;;;;;;;;;5264999;28;20035;-83
2023/09/25 12:55:51;;;;;;;1.40;0.50;;;;;;;;;;5267142;28;20276;-83
2023/09/25 12:58:22;;;;;;;1.13;0.40;;;;;;;;;;5266209;28;20271;-83
2023/09/25 13:00:53;;;;;;;2.58;0.57;;;;;;;;;;5264958;28;20279;-83
2023/09/25 13:03:25;;;;;;;1.20;0.40;;;;;;;;;;5264964;28;20031;-82
2023/09/25 13:05:56;;;;;;;1.27;0.50;;;;;;;;;;5263470;28;20024;-83
2023/09/25 13:08:27;;;;;;;2.55;0.50;;;;;;;;;;5263282;28;20090;-82
2023/09/25 13:10:58;;;;;;;1.67;0.43;;;;;;;;;;5265152;28;20021;-81
2023/09/25 13:13:30;;;;;;;2.67;0.40;;;;;;;;;;5255603;28;20307;-82
2023/09/25 13:16:01;;;;;;;2.05;0.40;;;;;;;;;;5260084;28;20634;-82
2023/09/25 13:18:34;;;;;;;1.48;0.50;;;;;;;;;;5264468;28;20524;-82
2023/09/25 13:21:05;;;;;;;1.20;0.40;;;;;;;;;;5264228;28;20035;-81
2023/09/25 13:23:36;;;;;;;3.97;0.40;;;;;;;;;;5264609;28;20029;-82
2023/09/25 13:26:07;;;;;;;2.72;0.50;;;;;;;;;;5264289;28;20566;-82
2023/09/25 13:28:39;;;;;;;1.63;0.60;;;;;;;;;;5262644;28;20516;-82
2023/09/25 13:31:10;;;;;;;0.95;0.40;;;;;;;;;;5263559;28;20288;-82
2023/09/25 13:33:41;;;;;;;4.93;0.60;;;;;;;;;;5263689;28;20044;-82
2023/09/25 13:36:15;;;;;;;2.80;0.50;;;;;;;;;;5262859;28;20016;-82
2023/09/25 13:38:47;;;;;;;1.83;0.55;;;;;;;;;;5263803;28;20766;-82
2023/09/25 13:41:18;;;;;;;3.33;0.50;;;;;;;;;;5262564;28;20025;-82
2023/09/25 13:43:49;;;;;;;1.27;0.43;;;;;;;;;;5260673;28;20376;-82
2023/09/25 13:46:20;;;;;;;3.50;0.47;;;;;;;;;;5263538;28;20492;-81
2023/09/25 13:48:51;;;;;;;4.57;0.50;;;;;;;;;;5262108;28;20303;-82
2023/09/25 13:51:22;;;;;;;3.43;0.60;;;;;;;;;;5262700;28;20267;-81
2023/09/25 13:53:55;;;;;;;4.47;0.50;;;;;;;;;;5262247;28;20647;-81
2023/09/25 13:56:27;;;;;;;2.05;0.50;;;;;;;;;;5262370;28;20274;-82
2023/09/25 13:58:58;;;;;;;1.38;0.50;;;;;;;;;;5263014;28;20021;-83
2023/09/25 14:01:29;;;;;;;1.90;0.50;;;;;;;;;;5262344;28;20082;-82
2023/09/25 14:04:01;;;;;;;2.30;0.60;;;;;;;;;;5261850;28;20025;-82
2023/09/25 14:06:32;;;;;;;1.83;0.50;;;;;;;;;;5262525;28;20270;-81
2023/09/25 14:09:03;;;;;;;1.03;0.40;;;;;;;;;;5262531;28;20623;-82
2023/09/25 14:11:35;;;;;;;1.10;0.45;;;;;;;;;;5260903;28;20358;-81
2023/09/25 14:14:08;;;;;;;1.77;0.50;;;;;;;;;;5261535;28;20086;-81
2023/09/25 14:16:39;;;;;;;2.20;0.40;;;;;;;;;;5262201;28;20033;-81
2023/09/25 14:19:10;;;;;;;1.50;0.70;;;;;;;;;;5263697;28;20423;-82
2023/09/25 14:21:41;;;;;;;1.63;0.53;;;;;;;;;;5264564;28;20362;-81
2023/09/25 14:24:12;;;;;;;2.75;0.40;;;;;;;;;;5261029;28;20267;-81
2023/09/25 14:26:44;;;;;;;5.13;0.50;;;;;;;;;;5262065;28;20107;-80
2023/09/25 14:29:15;;;;;;;2.05;0.50;;;;;;;;;;5263298;28;20345;-80
2023/09/25 14:31:46;;;;;;;3.43;0.63;;;;;;;;;;5262283;28;20013;-80
2023/09/25 14:34:17;;;;;;;1.35;0.50;;;;;;;;;;5263721;28;20295;-81
2023/09/25 14:36:49;;;;;;;1.70;0.60;;;;;;;;;;5261212;28;20013;-80
2023/09/25 14:39:24;;;;;;;1.23;0.50;;;;;;;;;;5264740;28;20263;-81
2023/09/25 14:41:55;;;;;;;2.75;0.40;;;;;;;;;;5263490;28;20025;-81
2023/09/25 14:44:26;;;;;;;1.90;0.53;;;;;;;;;;5262386;28;20028;-81
2023/09/25 14:46:57;;;;;;;0.90;0.40;;;;;;;;;;5259842;28;20287;-81
2023/09/25 14:49:29;;;;;;;1.73;0.52;;;;;;;;;;5260926;28;20391;-81
2023/09/25 14:52:00;;;;;;;2.03;0.40;;;;;;;;;;5262632;28;20487;-81
2023/09/25 14:54:31;;;;;;;1.60;0.40;;;;;;;;;;5269754;28;20390;-81
2023/09/25 14:57:02;;;;;;;1.70;0.70;;;;;;;;;;5262583;28;20525;-80
2023/09/25 14:59:33;;;;;;;1.33;0.50;;;;;;;;;;5260674;28;20377;-80
2023/09/25 15:02:05;;;;;;;1.13;0.43;;;;;;;;;;5263715;28;20464;-81
2023/09/25 15:04:36;;;;;;;1.40;0.40;;;;;;;;;;5261877;28;20264;-81
2023/09/25 15:07:07;;;;;;;1.30;0.40;;;;;;;;;;5260480;28;20103;-81
2023/09/25 15:09:38;;;;;;;2.80;0.70;;;;;;;;;;5260972;28;20260;-82
2023/09/25 15:12:11;;;;;;;2.03;0.60;;;;;;;;;;5261007;28;20100;-82